sensor_id;sensor_type;location;lat;lon;timestamp;pressure;altitude;pressure_sealevel;temperature;humidity
54465;BME280;40374;49.480;20.016;2023-07-31T10:54:13;94734.28;;;25.81;72.24
54465;BME280;40374;49.480;20.016;2023-07-31T10:56:46;94716.84;;;26.25;73.13
54465;BME280;40374;49.480;20.016;2023-07-31T11:07:50;94722.31;;;27.31;64.68
54465;BME280;40374;49.480;20.016;2023-07-31T11:11:49;94702.69;;;28.78;61.23
54465;BME280;40374;49.480;20.016;2023-07-31T11:14:20;94690.22;;;29.67;52.83
54465;BME280;40374;49.480;20.016;2023-07-31T11:19:24;94699.28;;;31.12;50.82
54465;BME280;40374;49.480;20.016;2023-07-31T11:21:52;94692.88;;;32.33;48.83
54465;BME280;40374;49.480;20.016;2023-07-31T11:24:20;94687.00;;;33.41;45.63
54465;BME280;40374;49.480;20.016;2023-07-31T11:26:52;94686.25;;;33.89;44.40
54465;BME280;40374;49.480;20.016;2023-07-31T11:29:20;94682.38;;;34.16;44.79
54465;BME280;40374;49.480;20.016;2023-07-31T11:31:48;94675.66;;;34.43;39.53
54465;BME280;40374;49.480;20.016;2023-07-31T11:34:16;94675.91;;;34.48;39.19
54465;BME280;40374;49.480;20.016;2023-07-31T11:36:55;94682.25;;;34.65;40.09
54465;BME280;40374;49.480;20.016;2023-07-31T11:39:23;94678.47;;;35.10;40.74
54465;BME280;40374;49.480;20.016;2023-07-31T11:41:51;94673.66;;;35.62;37.64
54465;BME280;40374;49.480;20.016;2023-07-31T11:44:18;94679.91;;;34.47;36.77
54465;BME280;40374;49.480;20.016;2023-07-31T11:46:57;94665.69;;;34.42;35.30
54465;BME280;40374;49.480;20.016;2023-07-31T11:49:25;94669.47;;;34.64;36.01
54465;BME280;40374;49.480;20.016;2023-07-31T11:51:53;94657.78;;;34.95;36.64
54465;BME280;40374;49.480;20.016;2023-07-31T11:54:21;94659.25;;;35.00;36.43
54465;BME280;40374;49.480;20.016;2023-07-31T11:56:49;94663.50;;;33.42;37.09
54465;BME280;40374;49.480;20.016;2023-07-31T11:59:17;94661.41;;;32.76;38.45
54465;BME280;40374;49.480;20.016;2023-07-31T12:04:56;94644.06;;;33.54;37.52
54465;BME280;40374;49.480;20.016;2023-07-31T12:28:38;94611.91;;;30.59;44.85
54465;BME280;40374;49.480;20.016;2023-07-31T12:31:10;94615.38;;;31.68;46.44
54465;BME280;40374;49.480;20.016;2023-07-31T12:33:39;94620.38;;;32.01;45.17
54465;BME280;40374;49.480;20.016;2023-07-31T12:36:10;94614.94;;;32.90;41.89
54465;BME280;40374;49.480;20.016;2023-07-31T12:38:38;94607.97;;;32.98;39.26
54465;BME280;40374;49.480;20.016;2023-07-31T12:41:06;94608.31;;;33.82;37.99
54465;BME280;40374;49.480;20.016;2023-07-31T12:43:39;94601.28;;;34.62;38.73
54465;BME280;40374;49.480;20.016;2023-07-31T12:46:07;94606.75;;;35.68;37.91
54465;BME280;40374;49.480;20.016;2023-07-31T12:48:36;94590.69;;;36.16;37.18
54465;BME280;40374;49.480;20.016;2023-07-31T12:51:04;94599.13;;;36.47;35.84
54465;BME280;40374;49.480;20.016;2023-07-31T12:53:31;94601.75;;;36.42;35.16
54465;BME280;40374;49.480;20.016;2023-07-31T12:56:01;94591.84;;;36.50;34.08
54465;BME280;40374;49.480;20.016;2023-07-31T12:58:28;94603.81;;;36.72;31.27
54465;BME280;40374;49.480;20.016;2023-07-31T13:08:40;94594.38;;;32.27;39.82
54465;BME280;40374;49.480;20.016;2023-07-31T13:11:08;94579.38;;;33.60;39.14
54465;BME280;40374;49.480;20.016;2023-07-31T13:13:35;94583.88;;;35.09;37.55
54465;BME280;40374;49.480;20.016;2023-07-31T13:56:33;94563.13;;;35.92;33.40
54465;BME280;40374;49.480;20.016;2023-07-31T13:59:01;94568.28;;;36.38;31.77
54465;BME280;40374;49.480;20.016;2023-07-31T14:01:30;94567.44;;;36.82;31.46
54465;BME280;40374;49.480;20.016;2023-07-31T14:03:57;94547.88;;;37.09;31.10
54465;BME280;40374;49.480;20.016;2023-07-31T14:06:25;94546.47;;;37.64;31.22
54465;BME280;40374;49.480;20.016;2023-07-31T14:08:53;94553.94;;;38.22;30.69
54465;BME280;40374;49.480;20.016;2023-07-31T14:11:20;94562.72;;;38.06;29.59
54465;BME280;40374;49.480;20.016;2023-07-31T14:13:49;94559.25;;;37.65;30.68
54465;BME280;40374;49.480;20.016;2023-07-31T14:16:16;94557.38;;;37.62;31.05
54465;BME280;40374;49.480;20.016;2023-07-31T14:18:45;94557.97;;;37.38;30.94
54465;BME280;40374;49.480;20.016;2023-07-31T14:21:13;94547.34;;;37.42;31.12
54465;BME280;40374;49.480;20.016;2023-07-31T14:23:41;94546.09;;;36.84;31.08
54465;BME280;40374;49.480;20.016;2023-07-31T14:26:09;94543.72;;;36.73;30.54
54465;BME280;40374;49.480;20.016;2023-07-31T14:28:37;94550.38;;;37.07;29.18
54465;BME280;40374;49.480;20.016;2023-07-31T14:31:08;94549.84;;;37.40;30.76
54465;BME280;40374;49.480;20.016;2023-07-31T14:33:35;94549.59;;;37.93;30.51
54465;BME280;40374;49.480;20.016;2023-07-31T14:36:03;94547.16;;;38.56;30.28
54465;BME280;40374;49.480;20.016;2023-07-31T14:38:31;94542.63;;;39.02;29.47
54465;BME280;40374;49.480;20.016;2023-07-31T14:40:58;94540.38;;;39.15;28.67
54465;BME280;40374;49.480;20.016;2023-07-31T14:43:26;94541.91;;;39.16;29.29
54465;BME280;40374;49.480;20.016;2023-07-31T14:45:53;94541.09;;;39.25;28.57
54465;BME280;40374;49.480;20.016;2023-07-31T14:48:23;94540.34;;;38.82;27.02
54465;BME280;40374;49.480;20.016;2023-07-31T15:15:34;94518.19;;;34.40;31.10
54465;BME280;40374;49.480;20.016;2023-07-31T15:18:02;94513.53;;;33.49;31.88
54465;BME280;40374;49.480;20.016;2023-07-31T15:20:30;94507.97;;;33.20;34.17
54465;BME280;40374;49.480;20.016;2023-07-31T15:22:58;94503.72;;;33.74;33.70
54465;BME280;40374;49.480;20.016;2023-07-31T15:25:25;94499.84;;;34.26;33.51
54465;BME280;40374;49.480;20.016;2023-07-31T15:27:53;94508.97;;;33.72;32.72
54465;BME280;40374;49.480;20.016;2023-07-31T15:30:20;94502.09;;;32.49;33.09
54465;BME280;40374;49.480;20.016;2023-07-31T15:32:49;94507.25;;;31.30;35.28
54465;BME280;40374;49.480;20.016;2023-07-31T15:35:17;94505.69;;;30.31;36.75
54465;BME280;40374;49.480;20.016;2023-07-31T15:47:44;94497.06;;;27.19;45.04
54465;BME280;40374;49.480;20.016;2023-07-31T15:50:12;94508.97;;;26.80;46.15
54465;BME280;40374;49.480;20.016;2023-07-31T15:52:40;94505.78;;;26.42;47.35
54465;BME280;40374;49.480;20.016;2023-07-31T15:55:07;94508.91;;;26.26;49.06
54465;BME280;40374;49.480;20.016;2023-07-31T15:57:35;94498.16;;;25.82;48.68
54465;BME280;40374;49.480;20.016;2023-07-31T16:00:03;94496.09;;;25.54;49.79
54465;BME280;40374;49.480;20.016;2023-07-31T16:02:34;94502.28;;;25.36;49.69
54465;BME280;40374;49.480;20.016;2023-07-31T16:05:02;94488.03;;;25.20;50.24
54465;BME280;40374;49.480;20.016;2023-07-31T16:07:30;94504.13;;;25.14;49.98
54465;BME280;40374;49.480;20.016;2023-07-31T16:09:57;94494.56;;;24.94;50.29
54465;BME280;40374;49.480;20.016;2023-07-31T16:12:26;94496.88;;;24.88;50.86
54465;BME280;40374;49.480;20.016;2023-07-31T16:14:53;94501.91;;;24.71;52.02
54465;BME280;40374;49.480;20.016;2023-07-31T16:17:21;94508.50;;;24.63;52.36
54465;BME280;40374;49.480;20.016;2023-07-31T16:19:49;94501.78;;;24.57;53.52
54465;BME280;40374;49.480;20.016;2023-07-31T16:22:16;94490.97;;;24.38;55.37
54465;BME280;40374;49.480;20.016;2023-07-31T16:24:44;94504.28;;;24.32;57.67
54465;BME280;40374;49.480;20.016;2023-07-31T16:27:11;94502.53;;;24.13;57.44
54465;BME280;40374;49.480;20.016;2023-07-31T16:29:39;94507.47;;;23.97;57.13
54465;BME280;40374;49.480;20.016;2023-07-31T16:32:06;94508.16;;;23.86;58.85
54465;BME280;40374;49.480;20.016;2023-07-31T16:34:38;94498.25;;;23.78;58.08
54465;BME280;40374;49.480;20.016;2023-07-31T16:37:06;94493.81;;;23.70;57.14
54465;BME280;40374;49.480;20.016;2023-07-31T16:39:34;94505.63;;;23.74;58.97
54465;BME280;40374;49.480;20.016;2023-07-31T16:42:03;94506.34;;;23.67;58.87
54465;BME280;40374;49.480;20.016;2023-07-31T16:44:31;94509.09;;;23.67;59.80
54465;BME280;40374;49.480;20.016;2023-07-31T16:46:58;94498.47;;;23.66;59.76
54465;BME280;40374;49.480;20.016;2023-07-31T16:49:26;94505.44;;;23.56;60.68
54465;BME280;40374;49.480;20.016;2023-07-31T16:51:53;94503.78;;;23.51;60.67
54465;BME280;40374;49.480;20.016;2023-07-31T16:54:21;94502.38;;;23.31;59.91
54465;BME280;40374;49.480;20.016;2023-07-31T16:56:48;94506.84;;;23.13;62.95
54465;BME280;40374;49.480;20.016;2023-07-31T16:59:27;94501.25;;;23.05;67.87
54465;BME280;40374;49.480;20.016;2023-07-31T17:01:55;94499.44;;;22.90;73.01
54465;BME280;40374;49.480;20.016;2023-07-31T17:04:27;94495.34;;;23.03;75.51
54465;BME280;40374;49.480;20.016;2023-07-31T17:06:55;94503.97;;;22.79;72.54
54465;BME280;40374;49.480;20.016;2023-07-31T17:09:23;94509.69;;;22.93;75.30
54465;BME280;40374;49.480;20.016;2023-07-31T17:11:51;94508.06;;;22.65;76.51
54465;BME280;40374;49.480;20.016;2023-07-31T17:14:19;94511.91;;;22.61;76.19
54465;BME280;40374;49.480;20.016;2023-07-31T17:16:46;94508.66;;;22.52;83.08
54465;BME280;40374;49.480;20.016;2023-07-31T17:19:14;94501.25;;;22.29;95.37
54465;BME280;40374;49.480;20.016;2023-07-31T17:21:42;94487.50;;;22.06;93.83
54465;BME280;40374;49.480;20.016;2023-07-31T17:24:10;94507.91;;;22.08;87.60
54465;BME280;40374;49.480;20.016;2023-07-31T17:26:37;94513.78;;;21.87;87.77
54465;BME280;40374;49.480;20.016;2023-07-31T17:29:05;94511.19;;;21.75;91.13
54465;BME280;40374;49.480;20.016;2023-07-31T17:31:32;94519.06;;;21.77;95.08
54465;BME280;40374;49.480;20.016;2023-07-31T17:34:03;94522.00;;;21.68;99.49
54465;BME280;40374;49.480;20.016;2023-07-31T17:36:31;94508.84;;;21.54;100.00
54465;BME280;40374;49.480;20.016;2023-07-31T17:38:59;94513.44;;;21.69;100.00
54465;BME280;40374;49.480;20.016;2023-07-31T17:41:27;94522.75;;;21.65;100.00
54465;BME280;40374;49.480;20.016;2023-07-31T17:43:55;94512.56;;;21.46;100.00
54465;BME280;40374;49.480;20.016;2023-07-31T17:46:23;94526.63;;;21.64;99.13
54465;BME280;40374;49.480;20.016;2023-07-31T17:48:51;94513.19;;;21.39;100.00
54465;BME280;40374;49.480;20.016;2023-07-31T17:51:18;94521.28;;;21.32;100.00
54465;BME280;40374;49.480;20.016;2023-07-31T17:53:46;94528.69;;;21.32;100.00
54465;BME280;40374;49.480;20.016;2023-07-31T17:56:13;94524.34;;;21.31;100.00
54465;BME280;40374;49.480;20.016;2023-07-31T17:58:41;94531.91;;;21.18;100.00
54465;BME280;40374;49.480;20.016;2023-07-31T18:01:08;94534.94;;;21.13;97.94
54465;BME280;40374;49.480;20.016;2023-07-31T18:03:36;94543.06;;;21.09;96.62
54465;BME280;40374;49.480;20.016;2023-07-31T18:06:03;94535.53;;;21.06;100.00
54465;BME280;40374;49.480;20.016;2023-07-31T18:08:31;94551.50;;;21.04;100.00
54465;BME280;40374;49.480;20.016;2023-07-31T18:10:58;94551.31;;;20.77;100.00
54465;BME280;40374;49.480;20.016;2023-07-31T23:43:05;62409.59;;;-145.97;100.00
54465;BME280;40374;49.480;20.016;2023-07-31T23:46:31;62409.59;;;-145.97;100.00
54465;BME280;40374;49.480;20.016;2023-07-31T23:49:57;62409.59;;;-145.97;100.00
54465;BME280;40374;49.480;20.016;2023-07-31T23:53:24;62409.59;;;-145.97;100.00
54465;BME280;40374;49.480;20.016;2023-07-31T23:56:50;62409.59;;;-145.97;100.00
